This is the latest recevied weather packets stored in our database for station/object IZ1UQG-N2. If no packets are shown the sender has not sent any weather packets the latest 10 day(s).
| Time | Temp. | Humidity | Pressure | Rain* | Wind** | Luminosity | Snow |
|---|---|---|---|---|---|---|---|
| 1778083731 | 14.44° C | 67% | 1005.6 hPa | 0 mm | - | 230 W/m² | - |
| 1778083673 | 14.44° C | 68% | 1005.7 hPa | 0 mm | - | 246 W/m² | - |
| 1778083611 | 14.44° C | 69% | 1005.6 hPa | 0 mm | - | 200 W/m² | - |
| 1778083551 | 14.44° C | 69% | 1005.7 hPa | 0 mm | - | 200 W/m² | - |
| 1778083551 | 14.44° C | 69% | 1005.7 hPa | 0 mm | - | 200 W/m² | - |
| 1778083491 | 14.44° C | 69% | 1005.6 hPa | 0 mm | - | 200 W/m² | - |
| 1778083431 | 14.44° C | 69% | 1005.6 hPa | 0 mm | - | 200 W/m² | - |
| 1778052383 | 11.67° C | 93% | 1006.5 hPa | 0 mm | - | 21 W/m² | - |
| 1778052340 | 11.67° C | 93% | 1006.5 hPa | 0 mm | - | 23 W/m² | - |
| 1778052323 | 11.67° C | 93% | 1006.5 hPa | 0 mm | - | 23 W/m² | - |
| 1778052262 | 11.67° C | 93% | 1006.6 hPa | 0 mm | - | 26 W/m² | - |
| 1778051801 | 11.67° C | 93% | 1006.7 hPa | 0 mm | - | 11 W/m² | - |
| 1778051793 | 11.67° C | 93% | 1006.7 hPa | 0 mm | - | 11 W/m² | - |
| 1778051733 | 11.67° C | 93% | 1006.7 hPa | 0 mm | - | 11 W/m² | - |
| 1778051672 | 11.67° C | 93% | 1006.7 hPa | 0 mm | - | 11 W/m² | - |
| 1778051621 | 11.67° C | 93% | 1006.7 hPa | 0 mm | - | 11 W/m² | - |
| 1778051613 | 11.67° C | 93% | 1006.7 hPa | 0 mm | - | 11 W/m² | - |
| 1778051553 | 11.67° C | 93% | 1006.7 hPa | 0 mm | - | 11 W/m² | - |
| 1778051493 | 11.67° C | 93% | 1006.8 hPa | 0 mm | - | 9 W/m² | - |
| 1778051440 | 11.67° C | 93% | 1006.7 hPa | 0 mm | - | 11 W/m² | - |
| 1778051432 | 11.67° C | 93% | 1006.7 hPa | 0 mm | - | 11 W/m² | - |
| 1778051373 | 11.67° C | 93% | 1006.7 hPa | 0 mm | - | 11 W/m² | - |
| 1778051312 | 11.67° C | 93% | 1006.7 hPa | 0 mm | - | 11 W/m² | - |
| 1778051260 | 11.67° C | 93% | 1006.8 hPa | 0 mm | - | 11 W/m² | - |
| 1778051252 | 11.67° C | 93% | 1006.8 hPa | 0 mm | - | 11 W/m² | - |
* Rain latest hour (hover to see other rain measurements)
** Current wind speed in m/s (hover to see current wind gust speed)